sensor_id;sensor_type;location;lat;lon;timestamp;P1;durP1;ratioP1;P2;durP2;ratioP2
37087;SDS011;23002;52.676;6.432;2022-11-15T00:00:45;23.42;;;10.88;;
37087;SDS011;23002;52.676;6.432;2022-11-15T00:03:16;23.17;;;9.98;;
37087;SDS011;23002;52.676;6.432;2022-11-15T00:05:43;23.83;;;10.10;;
37087;SDS011;23002;52.676;6.432;2022-11-15T00:08:11;22.27;;;9.73;;
37087;SDS011;23002;52.676;6.432;2022-11-15T00:10:38;18.38;;;8.20;;
37087;SDS011;23002;52.676;6.432;2022-11-15T00:13:06;19.98;;;9.48;;
37087;SDS011;23002;52.676;6.432;2022-11-15T00:15:34;20.17;;;9.02;;
37087;SDS011;23002;52.676;6.432;2022-11-15T00:18:02;19.88;;;9.40;;
37087;SDS011;23002;52.676;6.432;2022-11-15T00:20:29;20.58;;;8.88;;
37087;SDS011;23002;52.676;6.432;2022-11-15T00:22:57;21.60;;;9.80;;
37087;SDS011;23002;52.676;6.432;2022-11-15T00:25:24;21.10;;;9.07;;
37087;SDS011;23002;52.676;6.432;2022-11-15T00:27:54;20.20;;;9.38;;
37087;SDS011;23002;52.676;6.432;2022-11-15T00:30:21;22.15;;;8.85;;
37087;SDS011;23002;52.676;6.432;2022-11-15T00:32:48;22.67;;;9.30;;
37087;SDS011;23002;52.676;6.432;2022-11-15T00:35:16;19.63;;;9.38;;
37087;SDS011;23002;52.676;6.432;2022-11-15T00:37:43;20.58;;;8.68;;
37087;SDS011;23002;52.676;6.432;2022-11-15T00:40:10;18.10;;;9.55;;
37087;SDS011;23002;52.676;6.432;2022-11-15T00:42:39;22.77;;;9.05;;
37087;SDS011;23002;52.676;6.432;2022-11-15T00:45:06;23.42;;;9.32;;
37087;SDS011;23002;52.676;6.432;2022-11-15T00:47:33;19.63;;;10.25;;
37087;SDS011;23002;52.676;6.432;2022-11-15T00:50:00;20.92;;;9.52;;
37087;SDS011;23002;52.676;6.432;2022-11-15T00:52:27;22.10;;;9.05;;
37087;SDS011;23002;52.676;6.432;2022-11-15T00:54:54;20.73;;;8.60;;
37087;SDS011;23002;52.676;6.432;2022-11-15T00:57:21;24.25;;;10.68;;
37087;SDS011;23002;52.676;6.432;2022-11-15T00:59:48;27.02;;;9.73;;
37087;SDS011;23002;52.676;6.432;2022-11-15T01:02:15;24.65;;;9.85;;
37087;SDS011;23002;52.676;6.432;2022-11-15T01:04:43;24.65;;;10.20;;
37087;SDS011;23002;52.676;6.432;2022-11-15T01:07:10;20.42;;;8.80;;
37087;SDS011;23002;52.676;6.432;2022-11-15T01:09:37;19.25;;;9.32;;
37087;SDS011;23002;52.676;6.432;2022-11-15T01:12:04;21.58;;;9.52;;
37087;SDS011;23002;52.676;6.432;2022-11-15T01:14:31;19.20;;;8.90;;
37087;SDS011;23002;52.676;6.432;2022-11-15T01:16:58;21.63;;;10.15;;
37087;SDS011;23002;52.676;6.432;2022-11-15T01:19:25;23.55;;;9.48;;
37087;SDS011;23002;52.676;6.432;2022-11-15T01:21:52;19.52;;;8.65;;
37087;SDS011;23002;52.676;6.432;2022-11-15T01:24:19;19.60;;;8.80;;
37087;SDS011;23002;52.676;6.432;2022-11-15T01:26:47;21.48;;;9.18;;
37087;SDS011;23002;52.676;6.432;2022-11-15T01:29:14;21.85;;;8.82;;
37087;SDS011;23002;52.676;6.432;2022-11-15T01:31:41;23.52;;;8.68;;
37087;SDS011;23002;52.676;6.432;2022-11-15T01:34:08;19.90;;;8.73;;
37087;SDS011;23002;52.676;6.432;2022-11-15T01:36:35;20.33;;;9.85;;
37087;SDS011;23002;52.676;6.432;2022-11-15T01:39:02;21.42;;;8.95;;
37087;SDS011;23002;52.676;6.432;2022-11-15T01:41:30;19.90;;;8.93;;
37087;SDS011;23002;52.676;6.432;2022-11-15T01:46:45;19.65;;;9.27;;
37087;SDS011;23002;52.676;6.432;2022-11-15T01:49:17;23.23;;;9.52;;
37087;SDS011;23002;52.676;6.432;2022-11-15T01:51:44;21.55;;;8.57;;
37087;SDS011;23002;52.676;6.432;2022-11-15T01:54:13;23.25;;;10.23;;
37087;SDS011;23002;52.676;6.432;2022-11-15T01:56:43;21.48;;;10.30;;
37087;SDS011;23002;52.676;6.432;2022-11-15T01:59:13;24.15;;;9.25;;
37087;SDS011;23002;52.676;6.432;2022-11-15T02:01:40;19.20;;;9.18;;
37087;SDS011;23002;52.676;6.432;2022-11-15T02:04:13;19.70;;;9.05;;
37087;SDS011;23002;52.676;6.432;2022-11-15T02:06:42;23.45;;;9.93;;
37087;SDS011;23002;52.676;6.432;2022-11-15T02:09:10;20.88;;;9.65;;
37087;SDS011;23002;52.676;6.432;2022-11-15T02:11:38;24.98;;;9.45;;
37087;SDS011;23002;52.676;6.432;2022-11-15T02:14:05;25.85;;;9.38;;
37087;SDS011;23002;52.676;6.432;2022-11-15T02:16:43;28.80;;;10.20;;
37087;SDS011;23002;52.676;6.432;2022-11-15T02:30:21;26.13;;;9.60;;
37087;SDS011;23002;52.676;6.432;2022-11-15T02:32:52;28.17;;;9.60;;
37087;SDS011;23002;52.676;6.432;2022-11-15T02:35:29;27.02;;;11.18;;
37087;SDS011;23002;52.676;6.432;2022-11-15T02:38:06;30.17;;;10.52;;
37087;SDS011;23002;52.676;6.432;2022-11-15T02:40:41;26.38;;;10.70;;
37087;SDS011;23002;52.676;6.432;2022-11-15T02:43:12;30.90;;;10.98;;
37087;SDS011;23002;52.676;6.432;2022-11-15T02:46:06;25.52;;;10.10;;
37087;SDS011;23002;52.676;6.432;2022-11-15T02:48:35;31.08;;;12.40;;
37087;SDS011;23002;52.676;6.432;2022-11-15T02:51:02;27.95;;;11.55;;
37087;SDS011;23002;52.676;6.432;2022-11-15T02:53:30;28.10;;;10.20;;
37087;SDS011;23002;52.676;6.432;2022-11-15T02:55:57;30.35;;;11.90;;
37087;SDS011;23002;52.676;6.432;2022-11-15T03:06:33;27.13;;;11.07;;
37087;SDS011;23002;52.676;6.432;2022-11-15T03:09:07;29.52;;;11.65;;
37087;SDS011;23002;52.676;6.432;2022-11-15T03:11:37;33.00;;;11.50;;
37087;SDS011;23002;52.676;6.432;2022-11-15T03:14:13;29.25;;;11.13;;
37087;SDS011;23002;52.676;6.432;2022-11-15T03:16:48;28.55;;;11.68;;
37087;SDS011;23002;52.676;6.432;2022-11-15T03:21:48;27.73;;;11.95;;
37087;SDS011;23002;52.676;6.432;2022-11-15T03:24:15;30.92;;;12.63;;
37087;SDS011;23002;52.676;6.432;2022-11-15T03:26:51;27.88;;;11.57;;
37087;SDS011;23002;52.676;6.432;2022-11-15T03:29:22;33.95;;;12.60;;
37087;SDS011;23002;52.676;6.432;2022-11-15T03:31:51;30.42;;;12.00;;
37087;SDS011;23002;52.676;6.432;2022-11-15T03:37:06;29.17;;;13.35;;
37087;SDS011;23002;52.676;6.432;2022-11-15T03:39:33;39.10;;;12.30;;
37087;SDS011;23002;52.676;6.432;2022-11-15T03:42:20;30.92;;;11.40;;
37087;SDS011;23002;52.676;6.432;2022-11-15T03:47:41;36.78;;;13.80;;
37087;SDS011;23002;52.676;6.432;2022-11-15T03:50:19;35.78;;;14.02;;
37087;SDS011;23002;52.676;6.432;2022-11-15T03:52:47;35.13;;;13.65;;
37087;SDS011;23002;52.676;6.432;2022-11-15T03:55:16;44.28;;;13.98;;
37087;SDS011;23002;52.676;6.432;2022-11-15T03:57:43;31.15;;;12.40;;
37087;SDS011;23002;52.676;6.432;2022-11-15T04:00:11;38.15;;;13.60;;
37087;SDS011;23002;52.676;6.432;2022-11-15T04:02:38;40.08;;;14.13;;
37087;SDS011;23002;52.676;6.432;2022-11-15T04:05:05;36.42;;;13.50;;
37087;SDS011;23002;52.676;6.432;2022-11-15T04:07:33;34.90;;;13.43;;
37087;SDS011;23002;52.676;6.432;2022-11-15T04:10:00;39.55;;;14.15;;
37087;SDS011;23002;52.676;6.432;2022-11-15T04:12:35;34.92;;;15.02;;
37087;SDS011;23002;52.676;6.432;2022-11-15T04:20:07;38.92;;;14.70;;
37087;SDS011;23002;52.676;6.432;2022-11-15T04:22:53;34.58;;;13.75;;
37087;SDS011;23002;52.676;6.432;2022-11-15T04:25:39;33.92;;;13.52;;
37087;SDS011;23002;52.676;6.432;2022-11-15T04:28:07;33.10;;;14.13;;
37087;SDS011;23002;52.676;6.432;2022-11-15T04:30:34;39.10;;;14.88;;
37087;SDS011;23002;52.676;6.432;2022-11-15T04:33:01;39.20;;;15.88;;
37087;SDS011;23002;52.676;6.432;2022-11-15T04:35:28;36.10;;;14.40;;
37087;SDS011;23002;52.676;6.432;2022-11-15T04:37:56;42.88;;;15.40;;
37087;SDS011;23002;52.676;6.432;2022-11-15T04:40:23;34.20;;;14.15;;
37087;SDS011;23002;52.676;6.432;2022-11-15T04:42:50;31.92;;;13.68;;
37087;SDS011;23002;52.676;6.432;2022-11-15T04:45:17;36.30;;;14.55;;
37087;SDS011;23002;52.676;6.432;2022-11-15T04:47:45;27.50;;;13.27;;
37087;SDS011;23002;52.676;6.432;2022-11-15T04:50:12;31.08;;;13.82;;
37087;SDS011;23002;52.676;6.432;2022-11-15T04:52:41;39.05;;;14.98;;
37087;SDS011;23002;52.676;6.432;2022-11-15T04:55:11;39.72;;;14.38;;
37087;SDS011;23002;52.676;6.432;2022-11-15T04:57:38;32.10;;;12.68;;
37087;SDS011;23002;52.676;6.432;2022-11-15T05:00:06;31.02;;;12.95;;
37087;SDS011;23002;52.676;6.432;2022-11-15T05:02:34;27.67;;;14.80;;
37087;SDS011;23002;52.676;6.432;2022-11-15T05:05:19;35.53;;;13.63;;
37087;SDS011;23002;52.676;6.432;2022-11-15T05:07:47;36.63;;;14.50;;
37087;SDS011;23002;52.676;6.432;2022-11-15T05:10:14;34.97;;;15.23;;
37087;SDS011;23002;52.676;6.432;2022-11-15T05:12:41;35.25;;;13.07;;
37087;SDS011;23002;52.676;6.432;2022-11-15T05:15:08;32.67;;;14.05;;
37087;SDS011;23002;52.676;6.432;2022-11-15T05:17:36;31.88;;;13.85;;
37087;SDS011;23002;52.676;6.432;2022-11-15T05:20:03;32.17;;;14.80;;
37087;SDS011;23002;52.676;6.432;2022-11-15T05:22:30;32.30;;;13.45;;
37087;SDS011;23002;52.676;6.432;2022-11-15T05:24:57;29.98;;;14.63;;
37087;SDS011;23002;52.676;6.432;2022-11-15T05:27:25;32.83;;;13.13;;
37087;SDS011;23002;52.676;6.432;2022-11-15T05:29:52;30.58;;;13.82;;
37087;SDS011;23002;52.676;6.432;2022-11-15T05:32:19;28.52;;;13.18;;
37087;SDS011;23002;52.676;6.432;2022-11-15T05:34:46;30.77;;;12.60;;
37087;SDS011;23002;52.676;6.432;2022-11-15T05:37:13;31.05;;;13.45;;
37087;SDS011;23002;52.676;6.432;2022-11-15T05:39:40;29.10;;;13.85;;
37087;SDS011;23002;52.676;6.432;2022-11-15T05:42:09;35.20;;;13.43;;
37087;SDS011;23002;52.676;6.432;2022-11-15T05:44:37;29.42;;;12.80;;
37087;SDS011;23002;52.676;6.432;2022-11-15T05:47:06;35.17;;;13.32;;
37087;SDS011;23002;52.676;6.432;2022-11-15T05:49:35;29.88;;;13.75;;
37087;SDS011;23002;52.676;6.432;2022-11-15T05:52:03;25.98;;;12.40;;
37087;SDS011;23002;52.676;6.432;2022-11-15T05:54:31;32.53;;;13.85;;
37087;SDS011;23002;52.676;6.432;2022-11-15T05:56:59;31.40;;;12.88;;
37087;SDS011;23002;52.676;6.432;2022-11-15T05:59:28;32.08;;;13.32;;
37087;SDS011;23002;52.676;6.432;2022-11-15T06:01:56;29.83;;;14.02;;
37087;SDS011;23002;52.676;6.432;2022-11-15T06:04:23;30.02;;;13.23;;
37087;SDS011;23002;52.676;6.432;2022-11-15T06:06:51;29.15;;;12.93;;
37087;SDS011;23002;52.676;6.432;2022-11-15T06:09:18;33.92;;;12.77;;
37087;SDS011;23002;52.676;6.432;2022-11-15T06:11:45;32.13;;;13.10;;
37087;SDS011;23002;52.676;6.432;2022-11-15T06:14:12;31.63;;;13.18;;
37087;SDS011;23002;52.676;6.432;2022-11-15T06:16:39;29.88;;;12.55;;
37087;SDS011;23002;52.676;6.432;2022-11-15T06:19:06;30.67;;;13.88;;
37087;SDS011;23002;52.676;6.432;2022-11-15T06:21:34;30.30;;;12.88;;
37087;SDS011;23002;52.676;6.432;2022-11-15T06:24:01;26.27;;;12.18;;
37087;SDS011;23002;52.676;6.432;2022-11-15T06:26:28;26.95;;;12.02;;
37087;SDS011;23002;52.676;6.432;2022-11-15T06:28:55;22.17;;;11.18;;
37087;SDS011;23002;52.676;6.432;2022-11-15T06:31:22;26.23;;;13.00;;
37087;SDS011;23002;52.676;6.432;2022-11-15T06:33:49;26.67;;;12.25;;
37087;SDS011;23002;52.676;6.432;2022-11-15T06:36:16;28.58;;;11.88;;
37087;SDS011;23002;52.676;6.432;2022-11-15T06:38:44;33.75;;;12.95;;
37087;SDS011;23002;52.676;6.432;2022-11-15T06:41:12;29.85;;;13.07;;
37087;SDS011;23002;52.676;6.432;2022-11-15T06:43:39;31.88;;;12.15;;
37087;SDS011;23002;52.676;6.432;2022-11-15T06:46:07;25.20;;;12.57;;
37087;SDS011;23002;52.676;6.432;2022-11-15T06:48:34;24.50;;;11.00;;
37087;SDS011;23002;52.676;6.432;2022-11-15T06:51:02;25.20;;;11.93;;
37087;SDS011;23002;52.676;6.432;2022-11-15T06:53:29;25.60;;;10.95;;
37087;SDS011;23002;52.676;6.432;2022-11-15T06:55:58;25.42;;;11.38;;
37087;SDS011;23002;52.676;6.432;2022-11-15T06:58:26;31.25;;;12.45;;
37087;SDS011;23002;52.676;6.432;2022-11-15T07:00:57;24.13;;;11.20;;
37087;SDS011;23002;52.676;6.432;2022-11-15T07:05:56;23.15;;;10.50;;
37087;SDS011;23002;52.676;6.432;2022-11-15T07:08:30;28.45;;;10.75;;
37087;SDS011;23002;52.676;6.432;2022-11-15T07:10:58;26.02;;;11.95;;
37087;SDS011;23002;52.676;6.432;2022-11-15T07:13:26;23.40;;;11.10;;
37087;SDS011;23002;52.676;6.432;2022-11-15T07:15:54;26.08;;;11.02;;
37087;SDS011;23002;52.676;6.432;2022-11-15T07:18:21;22.77;;;11.40;;
37087;SDS011;23002;52.676;6.432;2022-11-15T07:20:48;24.52;;;10.63;;
37087;SDS011;23002;52.676;6.432;2022-11-15T07:23:15;23.73;;;10.38;;
37087;SDS011;23002;52.676;6.432;2022-11-15T07:25:43;19.58;;;10.63;;
37087;SDS011;23002;52.676;6.432;2022-11-15T07:28:10;22.00;;;10.63;;
37087;SDS011;23002;52.676;6.432;2022-11-15T07:30:37;23.20;;;10.23;;
37087;SDS011;23002;52.676;6.432;2022-11-15T07:33:10;20.80;;;10.48;;
37087;SDS011;23002;52.676;6.432;2022-11-15T07:35:37;24.40;;;10.20;;
37087;SDS011;23002;52.676;6.432;2022-11-15T07:38:04;24.75;;;10.20;;
37087;SDS011;23002;52.676;6.432;2022-11-15T07:40:31;19.23;;;9.82;;
37087;SDS011;23002;52.676;6.432;2022-11-15T07:43:03;22.58;;;10.40;;
37087;SDS011;23002;52.676;6.432;2022-11-15T07:45:30;23.55;;;11.10;;
37087;SDS011;23002;52.676;6.432;2022-11-15T07:47:59;22.95;;;11.38;;
37087;SDS011;23002;52.676;6.432;2022-11-15T07:50:27;25.75;;;10.50;;
37087;SDS011;23002;52.676;6.432;2022-11-15T07:52:58;24.42;;;10.30;;
37087;SDS011;23002;52.676;6.432;2022-11-15T07:55:26;23.77;;;9.38;;
37087;SDS011;23002;52.676;6.432;2022-11-15T07:57:59;23.23;;;9.55;;
37087;SDS011;23002;52.676;6.432;2022-11-15T08:00:26;23.85;;;9.15;;
37087;SDS011;23002;52.676;6.432;2022-11-15T08:03:00;24.23;;;9.70;;
37087;SDS011;23002;52.676;6.432;2022-11-15T08:05:27;20.88;;;9.85;;
37087;SDS011;23002;52.676;6.432;2022-11-15T08:07:55;16.75;;;8.95;;
37087;SDS011;23002;52.676;6.432;2022-11-15T08:10:22;18.70;;;9.90;;
37087;SDS011;23002;52.676;6.432;2022-11-15T08:13:03;20.48;;;10.82;;
37087;SDS011;23002;52.676;6.432;2022-11-15T08:15:31;23.45;;;9.70;;
37087;SDS011;23002;52.676;6.432;2022-11-15T08:17:59;20.23;;;9.65;;
37087;SDS011;23002;52.676;6.432;2022-11-15T08:20:27;20.17;;;9.60;;
37087;SDS011;23002;52.676;6.432;2022-11-15T08:22:58;19.90;;;9.40;;
37087;SDS011;23002;52.676;6.432;2022-11-15T08:25:26;20.88;;;10.00;;
37087;SDS011;23002;52.676;6.432;2022-11-15T08:27:55;21.73;;;10.40;;
37087;SDS011;23002;52.676;6.432;2022-11-15T08:30:22;18.92;;;9.77;;
37087;SDS011;23002;52.676;6.432;2022-11-15T08:32:50;22.15;;;10.45;;
37087;SDS011;23002;52.676;6.432;2022-11-15T08:35:18;18.67;;;8.95;;
37087;SDS011;23002;52.676;6.432;2022-11-15T08:37:52;21.02;;;10.02;;
37087;SDS011;23002;52.676;6.432;2022-11-15T08:40:20;17.90;;;9.13;;
37087;SDS011;23002;52.676;6.432;2022-11-15T08:42:48;23.05;;;9.80;;
37087;SDS011;23002;52.676;6.432;2022-11-15T08:45:15;20.98;;;9.98;;
37087;SDS011;23002;52.676;6.432;2022-11-15T08:47:42;18.40;;;9.40;;
37087;SDS011;23002;52.676;6.432;2022-11-15T08:50:12;19.35;;;9.30;;
37087;SDS011;23002;52.676;6.432;2022-11-15T08:52:39;19.60;;;9.30;;
37087;SDS011;23002;52.676;6.432;2022-11-15T08:55:06;20.05;;;8.60;;
37087;SDS011;23002;52.676;6.432;2022-11-15T08:57:34;19.00;;;8.85;;
37087;SDS011;23002;52.676;6.432;2022-11-15T09:00:01;16.05;;;8.65;;
37087;SDS011;23002;52.676;6.432;2022-11-15T09:02:28;18.00;;;8.50;;
37087;SDS011;23002;52.676;6.432;2022-11-15T09:04:55;15.55;;;8.48;;
37087;SDS011;23002;52.676;6.432;2022-11-15T09:07:22;20.58;;;9.48;;
37087;SDS011;23002;52.676;6.432;2022-11-15T09:09:50;19.05;;;9.13;;
37087;SDS011;23002;52.676;6.432;2022-11-15T09:12:18;16.45;;;8.65;;
37087;SDS011;23002;52.676;6.432;2022-11-15T09:14:45;15.25;;;8.60;;
37087;SDS011;23002;52.676;6.432;2022-11-15T09:17:12;14.10;;;8.05;;
37087;SDS011;23002;52.676;6.432;2022-11-15T09:19:39;16.58;;;8.60;;
37087;SDS011;23002;52.676;6.432;2022-11-15T09:22:06;16.92;;;8.68;;
37087;SDS011;23002;52.676;6.432;2022-11-15T09:24:34;18.65;;;8.80;;
37087;SDS011;23002;52.676;6.432;2022-11-15T09:27:02;14.70;;;7.78;;
37087;SDS011;23002;52.676;6.432;2022-11-15T09:29:29;14.43;;;8.05;;
37087;SDS011;23002;52.676;6.432;2022-11-15T09:31:56;15.27;;;7.38;;
37087;SDS011;23002;52.676;6.432;2022-11-15T09:34:23;13.40;;;7.63;;
37087;SDS011;23002;52.676;6.432;2022-11-15T09:36:50;14.80;;;6.75;;
37087;SDS011;23002;52.676;6.432;2022-11-15T09:39:17;14.73;;;7.85;;
37087;SDS011;23002;52.676;6.432;2022-11-15T09:50:00;12.80;;;6.72;;
37087;SDS011;23002;52.676;6.432;2022-11-15T09:52:28;11.55;;;5.80;;
37087;SDS011;23002;52.676;6.432;2022-11-15T09:54:55;9.02;;;5.80;;
37087;SDS011;23002;52.676;6.432;2022-11-15T09:57:33;8.10;;;4.75;;
37087;SDS011;23002;52.676;6.432;2022-11-15T10:00:22;9.68;;;4.90;;
37087;SDS011;23002;52.676;6.432;2022-11-15T10:03:13;9.88;;;5.32;;
37087;SDS011;23002;52.676;6.432;2022-11-15T10:05:42;13.23;;;4.65;;
37087;SDS011;23002;52.676;6.432;2022-11-15T10:08:20;8.70;;;4.57;;
37087;SDS011;23002;52.676;6.432;2022-11-15T10:10:52;8.07;;;4.65;;
37087;SDS011;23002;52.676;6.432;2022-11-15T10:13:41;8.27;;;4.28;;
37087;SDS011;23002;52.676;6.432;2022-11-15T10:24:12;9.50;;;3.25;;
37087;SDS011;23002;52.676;6.432;2022-11-15T10:29:08;6.70;;;3.33;;
37087;SDS011;23002;52.676;6.432;2022-11-15T10:31:37;8.90;;;4.05;;
37087;SDS011;23002;52.676;6.432;2022-11-15T10:34:16;10.00;;;3.50;;
37087;SDS011;23002;52.676;6.432;2022-11-15T10:36:54;6.82;;;3.40;;
37087;SDS011;23002;52.676;6.432;2022-11-15T10:39:22;4.75;;;3.15;;
37087;SDS011;23002;52.676;6.432;2022-11-15T10:41:49;6.70;;;2.83;;
37087;SDS011;23002;52.676;6.432;2022-11-15T10:47:47;7.70;;;3.15;;
37087;SDS011;23002;52.676;6.432;2022-11-15T10:49:53;8.98;;;3.00;;
37087;SDS011;23002;52.676;6.432;2022-11-15T10:52:20;5.43;;;2.72;;
37087;SDS011;23002;52.676;6.432;2022-11-15T10:54:48;4.22;;;2.30;;
37087;SDS011;23002;52.676;6.432;2022-11-15T10:57:19;6.63;;;2.75;;
37087;SDS011;23002;52.676;6.432;2022-11-15T10:59:48;6.45;;;3.67;;
37087;SDS011;23002;52.676;6.432;2022-11-15T11:05:02;7.47;;;3.28;;
37087;SDS011;23002;52.676;6.432;2022-11-15T11:07:30;6.13;;;2.60;;
37087;SDS011;23002;52.676;6.432;2022-11-15T11:10:40;6.80;;;2.85;;
37087;SDS011;23002;52.676;6.432;2022-11-15T11:13:15;4.78;;;1.90;;
37087;SDS011;23002;52.676;6.432;2022-11-15T11:15:55;5.13;;;1.90;;
37087;SDS011;23002;52.676;6.432;2022-11-15T11:18:29;3.90;;;2.20;;
37087;SDS011;23002;52.676;6.432;2022-11-15T11:20:58;8.55;;;2.10;;
37087;SDS011;23002;52.676;6.432;2022-11-15T11:28:42;5.43;;;2.10;;
37087;SDS011;23002;52.676;6.432;2022-11-15T11:45:24;3.88;;;1.50;;
37087;SDS011;23002;52.676;6.432;2022-11-15T11:47:24;4.40;;;1.95;;
37087;SDS011;23002;52.676;6.432;2022-11-15T11:49:56;3.83;;;2.00;;
37087;SDS011;23002;52.676;6.432;2022-11-15T12:00:14;3.08;;;1.63;;
37087;SDS011;23002;52.676;6.432;2022-11-15T12:07:43;3.35;;;1.48;;
37087;SDS011;23002;52.676;6.432;2022-11-15T12:10:17;5.38;;;1.80;;
37087;SDS011;23002;52.676;6.432;2022-11-15T12:15:33;2.55;;;1.10;;
37087;SDS011;23002;52.676;6.432;2022-11-15T12:18:03;3.58;;;1.50;;
37087;SDS011;23002;52.676;6.432;2022-11-15T12:20:35;2.25;;;1.30;;
37087;SDS011;23002;52.676;6.432;2022-11-15T12:23:04;2.35;;;1.40;;
37087;SDS011;23002;52.676;6.432;2022-11-15T12:25:52;6.38;;;2.20;;
37087;SDS011;23002;52.676;6.432;2022-11-15T12:34:13;2.92;;;1.10;;
37087;SDS011;23002;52.676;6.432;2022-11-15T12:36:45;2.17;;;1.10;;
37087;SDS011;23002;52.676;6.432;2022-11-15T12:39:13;2.38;;;1.20;;
37087;SDS011;23002;52.676;6.432;2022-11-15T12:41:41;2.70;;;1.40;;
37087;SDS011;23002;52.676;6.432;2022-11-15T12:44:13;4.63;;;1.65;;
37087;SDS011;23002;52.676;6.432;2022-11-15T12:47:00;3.47;;;1.42;;
37087;SDS011;23002;52.676;6.432;2022-11-15T12:49:42;3.65;;;1.35;;
37087;SDS011;23002;52.676;6.432;2022-11-15T12:52:10;2.25;;;1.30;;
37087;SDS011;23002;52.676;6.432;2022-11-15T12:59:50;2.47;;;1.17;;
37087;SDS011;23002;52.676;6.432;2022-11-15T13:02:37;1.90;;;1.10;;
37087;SDS011;23002;52.676;6.432;2022-11-15T13:17:45;3.05;;;1.00;;
37087;SDS011;23002;52.676;6.432;2022-11-15T13:35:46;1.15;;;0.68;;
37087;SDS011;23002;52.676;6.432;2022-11-15T13:40:46;3.08;;;0.70;;
37087;SDS011;23002;52.676;6.432;2022-11-15T13:43:17;1.27;;;0.50;;
37087;SDS011;23002;52.676;6.432;2022-11-15T13:48:36;2.95;;;0.63;;
37087;SDS011;23002;52.676;6.432;2022-11-15T13:51:04;2.47;;;0.52;;
37087;SDS011;23002;52.676;6.432;2022-11-15T13:53:33;2.72;;;0.63;;
37087;SDS011;23002;52.676;6.432;2022-11-15T13:56:01;2.00;;;0.60;;
37087;SDS011;23002;52.676;6.432;2022-11-15T13:58:29;3.00;;;0.80;;
37087;SDS011;23002;52.676;6.432;2022-11-15T14:00:59;2.15;;;0.73;;
37087;SDS011;23002;52.676;6.432;2022-11-15T14:03:30;0.98;;;0.60;;
37087;SDS011;23002;52.676;6.432;2022-11-15T14:08:36;3.45;;;0.70;;
37087;SDS011;23002;52.676;6.432;2022-11-15T14:11:07;1.85;;;0.75;;
37087;SDS011;23002;52.676;6.432;2022-11-15T14:13:35;4.03;;;1.10;;
37087;SDS011;23002;52.676;6.432;2022-11-15T14:16:19;2.97;;;1.00;;
37087;SDS011;23002;52.676;6.432;2022-11-15T14:18:48;5.80;;;0.98;;
37087;SDS011;23002;52.676;6.432;2022-11-15T14:21:15;1.40;;;0.70;;
37087;SDS011;23002;52.676;6.432;2022-11-15T14:23:43;3.47;;;1.52;;
37087;SDS011;23002;52.676;6.432;2022-11-15T14:31:49;2.25;;;0.90;;
37087;SDS011;23002;52.676;6.432;2022-11-15T14:34:16;2.53;;;1.50;;
37087;SDS011;23002;52.676;6.432;2022-11-15T14:36:43;2.92;;;1.60;;
37087;SDS011;23002;52.676;6.432;2022-11-15T14:39:10;8.05;;;3.78;;
37087;SDS011;23002;52.676;6.432;2022-11-15T14:41:37;2.03;;;1.33;;
37087;SDS011;23002;52.676;6.432;2022-11-15T14:44:05;3.05;;;1.27;;
37087;SDS011;23002;52.676;6.432;2022-11-15T14:46:32;3.00;;;1.50;;
37087;SDS011;23002;52.676;6.432;2022-11-15T14:48:59;3.45;;;1.33;;
37087;SDS011;23002;52.676;6.432;2022-11-15T14:51:26;3.60;;;1.95;;
37087;SDS011;23002;52.676;6.432;2022-11-15T14:53:54;3.55;;;2.10;;
37087;SDS011;23002;52.676;6.432;2022-11-15T14:56:21;7.97;;;4.63;;
37087;SDS011;23002;52.676;6.432;2022-11-15T14:58:48;18.00;;;10.27;;
37087;SDS011;23002;52.676;6.432;2022-11-15T15:01:17;7.20;;;3.13;;
37087;SDS011;23002;52.676;6.432;2022-11-15T15:03:46;7.43;;;3.88;;
37087;SDS011;23002;52.676;6.432;2022-11-15T15:06:13;8.57;;;4.30;;
37087;SDS011;23002;52.676;6.432;2022-11-15T15:08:44;11.77;;;5.60;;
37087;SDS011;23002;52.676;6.432;2022-11-15T15:11:14;12.52;;;4.70;;
37087;SDS011;23002;52.676;6.432;2022-11-15T15:13:41;15.40;;;7.10;;
37087;SDS011;23002;52.676;6.432;2022-11-15T15:16:09;9.10;;;3.83;;
37087;SDS011;23002;52.676;6.432;2022-11-15T15:18:36;16.63;;;7.80;;
37087;SDS011;23002;52.676;6.432;2022-11-15T15:21:20;7.97;;;4.55;;
37087;SDS011;23002;52.676;6.432;2022-11-15T15:23:47;29.88;;;13.60;;
37087;SDS011;23002;52.676;6.432;2022-11-15T15:26:15;8.05;;;3.50;;
37087;SDS011;23002;52.676;6.432;2022-11-15T15:28:43;6.40;;;5.00;;
37087;SDS011;23002;52.676;6.432;2022-11-15T15:31:10;5.38;;;3.40;;
37087;SDS011;23002;52.676;6.432;2022-11-15T15:33:37;8.70;;;3.40;;
37087;SDS011;23002;52.676;6.432;2022-11-15T15:36:04;5.90;;;2.88;;
37087;SDS011;23002;52.676;6.432;2022-11-15T15:38:31;4.38;;;2.70;;
37087;SDS011;23002;52.676;6.432;2022-11-15T15:40:59;4.28;;;2.63;;
37087;SDS011;23002;52.676;6.432;2022-11-15T15:43:29;7.15;;;2.60;;
37087;SDS011;23002;52.676;6.432;2022-11-15T15:45:56;5.63;;;3.03;;
37087;SDS011;23002;52.676;6.432;2022-11-15T15:48:23;6.13;;;2.80;;
37087;SDS011;23002;52.676;6.432;2022-11-15T15:50:50;5.05;;;2.70;;
37087;SDS011;23002;52.676;6.432;2022-11-15T15:53:17;4.53;;;2.45;;
37087;SDS011;23002;52.676;6.432;2022-11-15T15:55:44;8.77;;;3.72;;
37087;SDS011;23002;52.676;6.432;2022-11-15T15:58:12;6.70;;;3.17;;
37087;SDS011;23002;52.676;6.432;2022-11-15T16:00:39;9.60;;;5.15;;
37087;SDS011;23002;52.676;6.432;2022-11-15T16:03:06;9.05;;;5.07;;
37087;SDS011;23002;52.676;6.432;2022-11-15T16:05:33;5.45;;;3.10;;
37087;SDS011;23002;52.676;6.432;2022-11-15T16:08:01;8.05;;;3.08;;
37087;SDS011;23002;52.676;6.432;2022-11-15T16:10:29;7.95;;;4.60;;
37087;SDS011;23002;52.676;6.432;2022-11-15T16:12:57;7.68;;;4.80;;
37087;SDS011;23002;52.676;6.432;2022-11-15T16:15:26;6.15;;;3.25;;
37087;SDS011;23002;52.676;6.432;2022-11-15T16:17:54;5.40;;;3.22;;
37087;SDS011;23002;52.676;6.432;2022-11-15T16:20:41;12.15;;;6.50;;
37087;SDS011;23002;52.676;6.432;2022-11-15T16:23:09;9.55;;;6.28;;
37087;SDS011;23002;52.676;6.432;2022-11-15T16:25:39;6.60;;;4.00;;
37087;SDS011;23002;52.676;6.432;2022-11-15T16:28:16;8.70;;;5.25;;
37087;SDS011;23002;52.676;6.432;2022-11-15T16:30:44;11.00;;;4.45;;
37087;SDS011;23002;52.676;6.432;2022-11-15T16:33:11;5.15;;;2.70;;
37087;SDS011;23002;52.676;6.432;2022-11-15T16:35:38;6.20;;;2.42;;
37087;SDS011;23002;52.676;6.432;2022-11-15T16:38:07;3.60;;;2.28;;
37087;SDS011;23002;52.676;6.432;2022-11-15T16:40:35;2.35;;;1.50;;
37087;SDS011;23002;52.676;6.432;2022-11-15T16:43:02;3.50;;;1.70;;
37087;SDS011;23002;52.676;6.432;2022-11-15T16:45:33;3.33;;;1.58;;
37087;SDS011;23002;52.676;6.432;2022-11-15T16:48:00;3.15;;;1.65;;
37087;SDS011;23002;52.676;6.432;2022-11-15T16:50:31;15.15;;;6.47;;
37087;SDS011;23002;52.676;6.432;2022-11-15T16:53:05;5.88;;;2.90;;
37087;SDS011;23002;52.676;6.432;2022-11-15T16:55:32;4.57;;;2.67;;
37087;SDS011;23002;52.676;6.432;2022-11-15T16:57:59;3.92;;;1.40;;
37087;SDS011;23002;52.676;6.432;2022-11-15T17:00:27;3.63;;;2.10;;
37087;SDS011;23002;52.676;6.432;2022-11-15T17:02:54;2.72;;;1.60;;
37087;SDS011;23002;52.676;6.432;2022-11-15T17:05:22;24.67;;;9.35;;
37087;SDS011;23002;52.676;6.432;2022-11-15T17:07:50;45.65;;;12.75;;
37087;SDS011;23002;52.676;6.432;2022-11-15T17:10:20;33.28;;;15.40;;
37087;SDS011;23002;52.676;6.432;2022-11-15T17:12:47;14.32;;;6.47;;
37087;SDS011;23002;52.676;6.432;2022-11-15T17:15:15;9.18;;;4.47;;